Shellsville, Pennsylvania
Current Conditions -  °F | °C
As of 6:58 AM on Tuesday 27 Jan 2015 (Local Time) from KMUI Reporting Station
Scattered Clouds Scattered Clouds  
Wind Chill: 17°   Ceiling: Unl
Heat Index: 26°   Visibility: 10mi
Dew Point: 17°   Wind: 8mph
Humidity: 70%   Direction: 350°N
Pressure: 29.76"   Gusts: NA
Location:  40.3921°N, 76.6826°W
Report Text: KMUI 271158Z 35007KT 330V060 10SM SCT055 SCT070 M04/M08 A2976 RMK AO2A UPE1123 SLP087 P0000 60000 4/003 T10361083 11033 21039 53013
Loading
Personal Weather Stations






























Interactive Weather Map New forecast layout! Learn more

10-Day Weather Forecast

Advertisements
Track Severe Weather on mobile